Time;durP1;ratioP1;P1;durP2;ratioP2;P2;SDS_P1;SDS_P2;PMS_P1;PMS_P2;Temp;Humidity;BMP_temperature;BMP_pressure;BME280_temperature;BME280_humidity;BME280_pressure;Samples;Min_cycle;Max_cycle;Signal;HPM_P1;HPM_P2
2021/06/22 00:01:07;;;;;;;21.58;4.70;;;13.70;99.90;;;;;;5112414;28;20032;-78
2021/06/22 00:03:36;;;;;;;10.98;4.32;;;13.60;99.90;;;;;;5113225;27;20043;-78
2021/06/22 00:06:02;;;;;;;16.95;4.40;;;13.70;99.90;;;;;;5104055;28;20028;-78
2021/06/22 00:08:28;;;;;;;17.42;4.35;;;13.70;99.90;;;;;;5103559;28;20495;-78
2021/06/22 00:10:54;;;;;;;12.57;3.65;;;13.80;99.90;;;;;;5112983;28;20059;-79
2021/06/22 00:13:20;;;;;;;17.13;3.75;;;13.70;99.90;;;;;;5094737;28;20044;-78
2021/06/22 00:15:46;;;;;;;14.77;3.92;;;13.70;99.90;;;;;;5109735;28;20027;-79
2021/06/22 00:18:13;;;;;;;15.82;4.10;;;13.70;99.90;;;;;;5100696;28;20442;-79
2021/06/22 00:20:39;;;;;;;18.15;3.80;;;13.70;99.90;;;;;;5110630;28;20404;-79
2021/06/22 00:23:05;;;;;;;14.90;4.30;;;13.70;99.90;;;;;;5105159;28;20119;-79
2021/06/22 00:25:33;;;;;;;18.20;4.40;;;13.70;99.90;;;;;;5107063;28;20044;-78
2021/06/22 00:27:59;;;;;;;15.55;5.03;;;13.70;99.90;;;;;;5092334;28;20044;-79
2021/06/22 00:30:25;;;;;;;12.57;4.93;;;13.70;99.90;;;;;;5108747;28;20512;-78
2021/06/22 00:32:52;;;;;;;15.00;5.22;;;13.70;99.90;;;;;;5110285;28;20046;-79
2021/06/22 00:35:19;;;;;;;16.10;5.53;;;13.90;99.90;;;;;;5111975;28;20156;-79
2021/06/22 00:37:45;;;;;;;15.20;5.88;;;13.60;99.90;;;;;;5110124;28;20052;-78
2021/06/22 00:40:13;;;;;;;16.42;6.43;;;13.60;99.90;;;;;;5107612;28;20112;-71
2021/06/22 00:42:42;;;;;;;16.55;6.20;;;13.60;99.90;;;;;;5112257;28;20055;-71
2021/06/22 00:45:09;;;;;;;21.08;7.30;;;13.40;99.90;;;;;;5085975;28;20066;-71
2021/06/22 00:47:36;;;;;;;14.63;6.93;;;13.60;99.90;;;;;;5102121;28;20040;-71
2021/06/22 00:50:05;;;;;;;19.30;7.85;;;13.60;99.90;;;;;;5079759;28;20480;-71
2021/06/22 00:52:31;;;;;;;18.40;7.75;;;13.50;99.90;;;;;;5103517;28;20044;-71
2021/06/22 00:54:58;;;;;;;23.52;8.68;;;13.50;99.90;;;;;;5102054;28;20040;-72
2021/06/22 00:57:24;;;;;;;21.73;9.23;;;13.50;99.90;;;;;;5112099;28;20060;-72
2021/06/22 00:59:51;;;;;;;18.63;9.45;;;13.50;99.90;;;;;;5105826;28;20040;-72
2021/06/22 01:02:17;;;;;;;23.30;9.50;;;13.50;99.90;;;;;;5114224;28;20036;-72
2021/06/22 01:04:43;;;;;;;19.52;9.88;;;13.70;99.90;;;;;;5113123;28;20111;-72
2021/06/22 01:07:13;;;;;;;17.98;9.18;;;13.50;99.90;;;;;;5106526;28;20044;-78
2021/06/22 01:09:39;;;;;;;17.48;9.50;;;13.40;99.90;;;;;;5113438;27;20063;-77
2021/06/22 01:12:06;;;;;;;20.23;10.02;;;13.40;99.90;;;;;;5099003;28;20056;-79
2021/06/22 01:14:32;;;;;;;26.77;10.15;;;13.40;99.90;;;;;;5095901;28;20040;-80
2021/06/22 01:16:59;;;;;;;20.20;9.82;;;13.30;99.90;;;;;;5102428;28;20115;-78
2021/06/22 01:19:25;;;;;;;18.02;10.60;;;13.30;99.90;;;;;;5093780;28;20039;-78
2021/06/22 01:21:52;;;;;;;18.40;10.52;;;13.30;99.90;;;;;;5098830;28;20127;-79
2021/06/22 01:24:20;;;;;;;23.20;10.45;;;13.30;99.90;;;;;;5100368;28;20102;-79
2021/06/22 01:26:54;;;;;;;22.80;11.52;;;13.30;99.90;;;;;;5112969;27;20058;-80
2021/06/22 01:29:21;;;;;;;24.20;12.25;;;13.30;99.90;;;;;;5096871;28;20050;-78
2021/06/22 01:31:47;;;;;;;18.20;10.95;;;13.30;99.90;;;;;;5115471;28;20089;-78
2021/06/22 01:34:13;;;;;;;19.67;11.93;;;13.20;99.90;;;;;;5114255;28;20063;-78
2021/06/22 01:36:41;;;;;;;20.00;11.13;;;13.20;99.90;;;;;;5094361;28;20178;-78
2021/06/22 01:39:13;;;;;;;22.20;12.30;;;13.20;99.90;;;;;;5108664;28;20154;-78
2021/06/22 01:41:39;;;;;;;18.88;13.10;;;13.20;99.90;;;;;;5105000;28;20056;-78
2021/06/22 01:44:05;;;;;;;23.52;12.77;;;13.20;99.90;;;;;;5115638;28;20036;-78
2021/06/22 01:46:31;;;;;;;21.98;12.77;;;13.20;99.90;;;;;;5115027;28;20040;-72
2021/06/22 01:48:57;;;;;;;20.60;12.40;;;13.20;99.90;;;;;;5114515;28;20027;-72
2021/06/22 01:51:23;;;;;;;19.40;12.77;;;13.20;99.90;;;;;;5107433;28;20058;-72
2021/06/22 01:53:58;;;;;;;20.98;12.77;;;13.10;99.90;;;;;;5114298;28;20440;-72
2021/06/22 01:56:27;;;;;;;25.83;12.82;;;13.10;99.90;;;;;;5088308;28;20477;-72
2021/06/22 01:58:53;;;;;;;23.42;13.18;;;13.10;99.90;;;;;;5113323;28;20035;-71
2021/06/22 02:01:19;;;;;;;23.17;13.75;;;13.10;99.90;;;;;;5114975;28;20092;-71
2021/06/22 02:03:46;;;;;;;20.65;13.38;;;13.10;99.90;;;;;;5111669;28;20052;-71
2021/06/22 02:06:13;;;;;;;25.98;12.90;;;13.10;99.90;;;;;;5082391;28;20032;-71
2021/06/22 02:08:39;;;;;;;22.05;13.00;;;13.10;99.90;;;;;;5107630;28;20043;-72
2021/06/22 02:11:05;;;;;;;24.88;13.50;;;13.10;99.90;;;;;;5113340;28;20429;-71
2021/06/22 02:13:31;;;;;;;24.00;13.57;;;13.10;99.90;;;;;;5107432;28;20032;-71
2021/06/22 02:15:58;;;;;;;23.67;12.90;;;13.00;99.90;;;;;;5104850;28;20105;-77
2021/06/22 02:18:27;;;;;;;23.83;13.63;;;13.00;99.90;;;;;;5114972;28;20035;-78
2021/06/22 02:20:54;;;;;;;25.20;12.77;;;12.90;99.90;;;;;;5099641;28;20035;-77
2021/06/22 02:23:20;;;;;;;29.58;13.50;;;12.90;99.90;;;;;;5109628;28;20036;-78
2021/06/22 02:25:46;;;;;;;25.38;12.68;;;12.90;99.90;;;;;;5111839;28;20032;-78
2021/06/22 02:28:14;;;;;;;23.58;12.35;;;12.90;99.90;;;;;;5103091;28;20039;-79
2021/06/22 02:30:41;;;;;;;19.98;11.70;;;12.90;99.90;;;;;;5112516;28;20463;-78
2021/06/22 02:33:07;;;;;;;22.52;11.57;;;12.90;99.90;;;;;;5114272;28;20035;-78
2021/06/22 02:35:39;;;;;;;22.63;11.80;;;12.80;99.90;;;;;;5110939;28;20044;-78
2021/06/22 02:38:06;;;;;;;24.35;12.27;;;12.80;99.90;;;;;;5112244;28;21325;-78
2021/06/22 02:40:32;;;;;;;22.52;12.48;;;12.80;99.90;;;;;;5103083;28;20480;-79
2021/06/22 02:42:58;;;;;;;19.45;11.18;;;12.80;99.90;;;;;;5113485;28;20458;-78
2021/06/22 02:45:25;;;;;;;24.27;12.23;;;12.80;99.90;;;;;;5108252;28;20043;-78
2021/06/22 02:47:51;;;;;;;20.90;12.18;;;12.80;99.90;;;;;;5111585;28;20027;-78
2021/06/22 02:50:18;;;;;;;22.55;11.65;;;12.70;99.90;;;;;;5113824;28;20035;-78
2021/06/22 02:52:44;;;;;;;26.33;12.40;;;12.50;99.90;;;;;;5114007;28;20043;-78
2021/06/22 02:55:18;;;;;;;18.77;11.13;;;12.70;99.90;;;;;;5112885;28;20041;-77
2021/06/22 02:57:50;;;;;;;22.60;12.02;;;12.70;99.90;;;;;;5110285;28;20044;-78
2021/06/22 03:00:19;;;;;;;18.67;11.73;;;12.70;99.90;;;;;;5110926;28;20036;-78
2021/06/22 03:02:45;;;;;;;20.13;12.23;;;12.70;99.90;;;;;;5110281;28;20119;-78
2021/06/22 03:05:12;;;;;;;19.42;11.50;;;12.70;99.90;;;;;;5099823;28;20048;-78
2021/06/22 03:07:39;;;;;;;20.85;12.00;;;12.60;99.90;;;;;;5084727;28;20035;-78
2021/06/22 03:10:07;;;;;;;23.55;13.30;;;12.70;99.90;;;;;;5105566;28;20031;-77
2021/06/22 03:12:33;;;;;;;29.05;12.75;;;12.70;99.90;;;;;;5104727;28;20053;-77
2021/06/22 03:14:59;;;;;;;23.00;11.50;;;12.60;99.90;;;;;;5110591;28;20551;-77
2021/06/22 03:17:25;;;;;;;23.25;12.85;;;12.70;99.90;;;;;;5111898;28;20045;-77
2021/06/22 03:19:52;;;;;;;27.38;12.40;;;12.60;99.90;;;;;;5099192;28;20047;-78
2021/06/22 03:22:17;;;;;;;17.65;11.93;;;12.60;99.90;;;;;;5112042;28;20036;-78
2021/06/22 03:24:43;;;;;;;20.90;12.48;;;12.60;99.90;;;;;;5102466;28;20047;-77
2021/06/22 03:27:09;;;;;;;22.85;12.88;;;12.60;99.90;;;;;;5111382;28;20127;-79
2021/06/22 03:29:38;;;;;;;22.38;13.25;;;12.60;99.90;;;;;;5105478;28;20063;-78
2021/06/22 03:32:07;;;;;;;25.65;13.10;;;12.60;99.90;;;;;;5108706;28;20043;-78
2021/06/22 03:34:32;;;;;;;24.05;13.77;;;12.60;99.90;;;;;;5112718;28;20118;-78
2021/06/22 03:36:58;;;;;;;23.50;13.68;;;12.60;99.90;;;;;;5092591;28;20293;-78
2021/06/22 03:39:24;;;;;;;25.70;14.35;;;12.70;99.90;;;;;;5113241;28;20048;-71
2021/06/22 03:41:50;;;;;;;24.25;14.98;;;12.60;99.90;;;;;;5113097;28;20047;-71
2021/06/22 03:44:16;;;;;;;27.05;14.73;;;12.70;99.90;;;;;;5110826;28;20096;-71
2021/06/22 03:46:42;;;;;;;23.38;13.85;;;12.60;99.90;;;;;;5113483;28;20089;-71
2021/06/22 03:49:09;;;;;;;20.92;13.68;;;12.60;99.90;;;;;;5104394;28;20039;-71
2021/06/22 03:51:35;;;;;;;21.67;13.20;;;12.60;99.90;;;;;;5102167;28;20476;-71
2021/06/22 03:54:01;;;;;;;27.58;13.93;;;12.60;99.90;;;;;;5094718;28;20031;-71
2021/06/22 03:56:29;;;;;;;26.90;14.70;;;12.60;99.90;;;;;;5078230;28;20373;-71
2021/06/22 03:58:56;;;;;;;25.80;13.90;;;12.60;99.90;;;;;;5111376;28;20441;-78
2021/06/22 04:01:22;;;;;;;24.23;13.73;;;12.60;99.90;;;;;;5112404;28;20031;-78
2021/06/22 04:03:48;;;;;;;23.40;14.18;;;12.60;99.90;;;;;;5107572;28;20592;-79
2021/06/22 04:06:21;;;;;;;23.60;13.75;;;12.60;99.90;;;;;;5104779;28;20040;-78
2021/06/22 04:08:47;;;;;;;25.27;14.70;;;12.60;99.90;;;;;;5099328;28;20085;-78
2021/06/22 04:11:13;;;;;;;25.17;14.07;;;12.60;99.90;;;;;;5094175;28;20131;-71
2021/06/22 04:13:40;;;;;;;24.90;14.13;;;12.60;99.90;;;;;;5111756;28;20056;-71
2021/06/22 04:16:06;;;;;;;19.75;13.45;;;12.60;99.90;;;;;;5112214;28;20055;-71
2021/06/22 04:18:32;;;;;;;24.60;13.52;;;12.60;99.90;;;;;;5112759;28;20042;-71
2021/06/22 04:20:59;;;;;;;24.15;13.25;;;12.60;99.90;;;;;;5108068;28;20024;-71
2021/06/22 04:23:25;;;;;;;24.10;13.82;;;12.50;99.90;;;;;;5107952;28;20031;-71
2021/06/22 04:25:52;;;;;;;24.23;13.57;;;12.60;99.90;;;;;;5103173;28;20036;-71
2021/06/22 04:28:18;;;;;;;24.05;14.38;;;12.50;99.90;;;;;;5112944;28;20467;-72
2021/06/22 04:30:45;;;;;;;28.13;14.18;;;12.50;99.90;;;;;;5111776;28;20032;-71
2021/06/22 04:33:12;;;;;;;20.58;14.05;;;12.60;99.90;;;;;;5108093;28;20035;-71
2021/06/22 04:35:39;;;;;;;26.02;14.38;;;12.60;99.90;;;;;;5101194;28;20032;-71
2021/06/22 04:38:07;;;;;;;23.63;14.05;;;12.60;99.90;;;;;;5114935;28;20045;-71
2021/06/22 04:40:39;;;;;;;19.15;13.13;;;12.50;99.90;;;;;;5114410;28;20418;-71
2021/06/22 04:43:07;;;;;;;23.98;14.40;;;12.50;99.90;;;;;;5116707;28;20532;-72
2021/06/22 04:45:33;;;;;;;20.17;13.73;;;12.50;99.90;;;;;;5115384;28;20044;-71
2021/06/22 04:48:02;;;;;;;25.58;13.27;;;12.50;99.90;;;;;;5109865;28;20035;-71
2021/06/22 04:50:28;;;;;;;20.25;14.05;;;12.40;99.90;;;;;;5111930;28;20035;-71
2021/06/22 04:52:57;;;;;;;20.45;13.75;;;12.50;99.90;;;;;;5078908;28;20470;-71
2021/06/22 04:55:26;;;;;;;23.05;14.18;;;12.40;99.90;;;;;;5089654;28;20194;-71
2021/06/22 04:57:56;;;;;;;21.77;13.07;;;12.50;99.90;;;;;;5094851;28;20052;-72
2021/06/22 05:00:23;;;;;;;23.75;13.65;;;12.50;99.90;;;;;;5106421;28;20075;-72
2021/06/22 05:02:51;;;;;;;26.90;13.95;;;12.60;99.90;;;;;;5116395;28;20475;-71
2021/06/22 05:05:17;;;;;;;25.10;13.00;;;12.70;99.90;;;;;;5114443;28;20152;-72
2021/06/22 05:07:43;;;;;;;25.77;12.30;;;12.70;99.90;;;;;;5114095;28;20429;-72
2021/06/22 05:10:11;;;;;;;19.88;11.85;;;12.80;99.90;;;;;;5108278;28;20063;-71
2021/06/22 05:12:41;;;;;;;26.83;13.13;;;12.70;99.90;;;;;;5115996;28;20039;-72
2021/06/22 05:15:08;;;;;;;25.17;13.70;;;12.80;99.90;;;;;;5107517;28;20036;-72
2021/06/22 05:17:40;;;;;;;32.15;13.13;;;12.80;99.90;;;;;;5114899;28;20047;-72
2021/06/22 05:20:07;;;;;;;21.08;11.63;;;13.10;99.90;;;;;;5108517;28;20110;-71
2021/06/22 05:22:37;;;;;;;21.83;11.40;;;13.20;99.90;;;;;;5116040;28;20039;-78
2021/06/22 05:25:04;;;;;;;21.27;11.57;;;13.30;99.90;;;;;;5112715;28;20063;-78
2021/06/22 05:27:30;;;;;;;21.42;11.20;;;13.50;99.90;;;;;;5112562;28;20063;-78
2021/06/22 05:29:56;;;;;;;18.42;10.55;;;13.60;99.90;;;;;;5113653;27;20028;-78
2021/06/22 05:32:22;;;;;;;19.20;10.60;;;13.70;99.90;;;;;;5113303;28;20043;-78
2021/06/22 05:34:48;;;;;;;21.50;11.07;;;13.80;99.90;;;;;;5104310;28;20037;-78
2021/06/22 05:37:14;;;;;;;21.25;9.70;;;14.00;99.90;;;;;;5111039;28;20043;-72
2021/06/22 05:39:43;;;;;;;16.20;9.82;;;14.10;99.90;;;;;;5106998;28;20104;-72
2021/06/22 05:42:12;;;;;;;17.90;9.45;;;14.20;99.90;;;;;;5104044;28;20052;-72
2021/06/22 05:44:48;;;;;;;14.82;9.25;;;14.30;99.90;;;;;;5114391;28;20061;-71
2021/06/22 05:47:14;;;;;;;22.77;9.77;;;14.40;99.90;;;;;;5111068;28;20040;-72
2021/06/22 05:49:40;;;;;;;18.73;8.55;;;14.50;99.90;;;;;;5114869;28;20036;-79
2021/06/22 05:52:08;;;;;;;20.55;8.63;;;14.60;99.90;;;;;;5103324;28;20044;-78
2021/06/22 05:54:36;;;;;;;18.35;8.05;;;14.70;99.90;;;;;;5115294;28;20498;-78
2021/06/22 05:57:03;;;;;;;19.80;7.97;;;14.70;99.90;;;;;;5113034;28;20040;-78
2021/06/22 05:59:36;;;;;;;15.68;7.00;;;14.80;99.90;;;;;;5113770;28;20059;-78
2021/06/22 06:02:04;;;;;;;19.73;6.90;;;14.90;99.90;;;;;;5094094;28;20496;-78
2021/06/22 06:04:31;;;;;;;15.63;6.60;;;14.90;99.90;;;;;;5113177;28;20038;-79
2021/06/22 06:06:57;;;;;;;15.70;7.25;;;14.90;99.90;;;;;;5114656;28;20070;-78
2021/06/22 06:09:24;;;;;;;19.08;6.38;;;15.00;99.90;;;;;;5110522;28;20063;-78
2021/06/22 06:11:50;;;;;;;21.40;6.72;;;15.00;99.90;;;;;;5113052;28;20492;-78
2021/06/22 06:14:17;;;;;;;13.20;5.95;;;15.00;99.90;;;;;;5099182;28;20048;-78
2021/06/22 06:16:45;;;;;;;14.52;6.00;;;15.10;99.90;;;;;;5109484;28;20464;-78
2021/06/22 06:19:14;;;;;;;16.55;6.00;;;15.10;99.90;;;;;;5108450;28;20118;-78
2021/06/22 06:21:40;;;;;;;19.75;6.30;;;15.70;99.90;;;;;;5113697;28;20036;-78
2021/06/22 06:24:09;;;;;;;23.20;6.70;;;15.20;99.90;;;;;;5112651;28;20131;-78
2021/06/22 06:32:00;;;;;;;18.95;5.78;;;15.30;99.90;;;;;;5110342;28;20106;-78
2021/06/22 06:34:26;;;;;;;13.85;5.65;;;15.40;99.90;;;;;;5114371;28;20040;-71
2021/06/22 06:36:52;;;;;;;12.75;5.38;;;15.30;99.90;;;;;;5095281;28;20063;-71
2021/06/22 06:39:18;;;;;;;17.50;6.13;;;15.20;99.90;;;;;;5099701;28;20032;-72
2021/06/22 06:41:44;;;;;;;15.88;5.30;;;15.20;99.90;;;;;;5092723;28;20465;-72
2021/06/22 06:44:09;;;;;;;12.02;5.15;;;15.10;99.90;;;;;;5111804;28;20043;-72
2021/06/22 06:46:35;;;;;;;12.45;4.68;;;15.20;99.90;;;;;;5114108;28;20039;-78
2021/06/22 06:49:02;;;;;;;19.50;4.85;;;15.30;99.90;;;;;;5097262;28;20035;-72
2021/06/22 06:51:30;;;;;;;15.00;4.38;;;15.40;99.90;;;;;;5113844;28;20039;-72
2021/06/22 06:53:56;;;;;;;16.38;5.13;;;15.30;99.90;;;;;;5113890;28;20028;-72
2021/06/22 06:56:22;;;;;;;14.63;4.43;;;15.30;99.90;;;;;;5113017;28;20364;-72
2021/06/22 06:58:50;;;;;;;19.55;4.72;;;15.20;99.90;;;;;;5103985;28;20044;-72
2021/06/22 07:01:16;;;;;;;14.43;5.05;;;15.10;99.90;;;;;;5098198;28;20039;-79
2021/06/22 07:03:49;;;;;;;14.60;4.78;;;15.10;99.90;;;;;;5105374;28;20043;-79
2021/06/22 07:06:16;;;;;;;15.35;4.55;;;15.10;99.90;;;;;;5112042;28;20118;-78
2021/06/22 07:08:43;;;;;;;10.88;4.13;;;15.50;99.90;;;;;;5103767;28;20466;-78
2021/06/22 07:11:10;;;;;;;19.45;5.82;;;15.30;99.90;;;;;;5110523;28;20031;-79
2021/06/22 07:13:36;;;;;;;22.98;5.85;;;15.40;99.90;;;;;;5108371;28;20043;-79
2021/06/22 07:16:03;;;;;;;16.50;5.25;;;15.50;99.90;;;;;;5084947;28;20040;-80
2021/06/22 07:18:31;;;;;;;17.58;5.57;;;15.50;99.90;;;;;;5108554;28;20040;-83
2021/06/22 07:20:59;;;;;;;17.50;4.72;;;15.50;99.90;;;;;;5101001;28;20031;-76
2021/06/22 07:23:25;;;;;;;12.13;4.00;;;15.50;99.90;;;;;;5112215;28;20039;-79
2021/06/22 07:26:15;;;;;;;14.30;4.97;;;15.50;99.90;;;;;;5106466;28;20043;-76
2021/06/22 07:28:53;;;;;;;18.42;4.40;;;15.60;99.90;;;;;;5105465;28;20081;-80
2021/06/22 07:31:19;;;;;;;12.07;4.28;;;15.60;99.90;;;;;;5109264;28;20126;-80
2021/06/22 07:33:51;;;;;;;15.57;4.28;;;15.50;99.90;;;;;;5095714;28;20027;-80
2021/06/22 07:36:25;;;;;;;16.80;4.13;;;15.40;99.90;;;;;;5096671;28;20111;-76
2021/06/22 07:38:53;;;;;;;15.98;5.03;;;15.40;99.90;;;;;;5077228;28;20173;-80
2021/06/22 07:41:21;;;;;;;13.68;4.28;;;15.40;99.90;;;;;;5093991;28;20384;-81
2021/06/22 07:43:53;;;;;;;11.60;4.07;;;15.40;99.90;;;;;;5074480;28;20047;-76
2021/06/22 07:46:31;;;;;;;12.80;4.53;;;15.30;99.90;;;;;;5097839;28;20055;-82
2021/06/22 07:49:03;;;;;;;11.95;4.30;;;15.30;99.90;;;;;;5093539;28;20099;-78
2021/06/22 07:51:55;;;;;;;13.10;4.35;;;15.20;99.90;;;;;;5077877;28;20044;-81
2021/06/22 07:54:28;;;;;;;11.57;3.90;;;15.10;99.90;;;;;;5099078;28;20032;-80
2021/06/22 07:57:04;;;;;;;12.40;4.55;;;15.10;99.90;;;;;;5104575;28;20043;-79
2021/06/22 07:59:36;;;;;;;10.80;3.47;;;15.10;99.90;;;;;;5095435;28;21646;-79
2021/06/22 08:02:03;;;;;;;11.38;3.67;;;15.10;99.90;;;;;;5093894;28;20418;-79
2021/06/22 08:04:53;;;;;;;11.30;3.63;;;15.00;99.90;;;;;;5097864;28;20090;-84
2021/06/22 08:07:23;;;;;;;13.07;3.92;;;15.00;99.90;;;;;;5091820;28;20408;-83
2021/06/22 08:09:50;;;;;;;7.47;3.65;;;15.00;99.90;;;;;;5077175;28;20138;-82
2021/06/22 08:12:27;;;;;;;13.32;3.63;;;15.10;99.90;;;;;;5084101;28;20038;-79
2021/06/22 08:15:08;;;;;;;;;;;;;;;;;;;;;
2021/06/22 08:17:45;;;;;;;12.02;3.53;;;15.20;99.90;;;;;;5107190;28;20048;-84
2021/06/22 08:20:11;;;;;;;14.10;3.10;;;15.20;99.90;;;;;;5106584;28;20058;-78
2021/06/22 08:22:41;;;;;;;12.93;3.38;;;15.30;99.90;;;;;;5097346;28;20050;-84
2021/06/22 08:25:08;;;;;;;11.07;3.90;;;15.40;99.90;;;;;;5111344;28;20032;-83
2021/06/22 08:27:34;;;;;;;9.10;3.33;;;15.60;99.90;;;;;;5092464;28;20491;-79
2021/06/22 08:30:09;;;;;;;11.23;3.22;;;15.80;99.90;;;;;;5089845;28;20096;-79
2021/06/22 08:32:38;;;;;;;10.88;3.58;;;15.90;99.90;;;;;;5095683;28;20058;-84
2021/06/22 08:35:14;;;;;;;10.63;3.72;;;15.90;99.90;;;;;;5112625;28;20023;-83
2021/06/22 08:37:43;;;;;;;11.30;3.58;;;16.00;99.90;;;;;;5109233;28;20032;-78
2021/06/22 08:40:20;;;;;;;8.60;3.17;;;15.90;99.90;;;;;;5085610;28;20059;-79
2021/06/22 08:42:59;;;;;;;;;;;;;;;;;;;;;
2021/06/22 08:45:36;;;;;;;16.50;3.42;;;16.20;99.90;;;;;;5110960;28;20043;-83
2021/06/22 08:48:05;;;;;;;11.45;4.38;;;16.10;99.90;;;;;;5103477;28;20078;-83
2021/06/22 08:50:31;;;;;;;12.25;3.97;;;16.20;99.90;;;;;;5110427;28;20481;-79
2021/06/22 08:53:03;;;;;;;14.50;3.90;;;16.30;99.90;;;;;;5111489;28;20031;-78
2021/06/22 08:55:46;;;;;;;11.10;3.53;;;16.30;99.90;;;;;;5110841;28;20028;-82
2021/06/22 08:58:17;;;;;;;16.63;4.22;;;16.20;99.90;;;;;;5098301;28;20130;-78
2021/06/22 09:00:51;;;;;;;15.93;3.80;;;16.10;99.90;;;;;;5107133;28;20040;-79
2021/06/22 09:03:37;;;;;;;14.95;3.72;;;16.00;99.90;;;;;;5100002;28;20135;-77
2021/06/22 09:06:11;;;;;;;14.38;4.55;;;16.00;99.90;;;;;;5077240;28;20677;-83
2021/06/22 09:08:52;;;;;;;12.18;4.35;;;15.80;99.90;;;;;;5077586;28;20074;-83
2021/06/22 09:11:19;;;;;;;11.98;3.97;;;15.80;99.90;;;;;;5098365;28;20036;-77
2021/06/22 09:13:57;;;;;;;9.30;4.03;;;15.70;99.90;;;;;;5093769;28;20027;-78
2021/06/22 09:16:32;;;;;;;15.50;4.45;;;15.80;99.90;;;;;;5080191;28;20075;-77
2021/06/22 09:19:07;;;;;;;14.57;4.03;;;15.70;99.90;;;;;;5097988;28;20036;-77
2021/06/22 09:21:42;;;;;;;9.30;4.43;;;15.90;99.90;;;;;;5096710;28;20601;-82
2021/06/22 09:24:27;;;;;;;12.40;4.30;;;15.90;99.90;;;;;;5100462;28;20047;-83
2021/06/22 09:27:24;;;;;;;14.48;4.28;;;15.90;99.90;;;;;;5099420;28;20039;-78
2021/06/22 09:29:50;;;;;;;14.75;4.50;;;15.90;99.90;;;;;;5105531;28;20051;-78
2021/06/22 09:32:28;;;;;;;17.65;4.15;;;16.00;99.90;;;;;;5101095;28;20024;-83
2021/06/22 09:35:20;;;;;;;17.75;4.88;;;16.00;99.90;;;;;;5103631;28;20052;-82
2021/06/22 09:37:53;;;;;;;16.02;4.68;;;16.20;99.90;;;;;;5104314;28;20040;-77
2021/06/22 09:40:28;;;;;;;;;;;16.00;99.90;;;;;;5110635;28;20047;-82
2021/06/22 09:42:58;;;;;;;15.63;4.43;;;15.90;99.90;;;;;;5109834;28;19919;-82
2021/06/22 09:45:29;;;;;;;15.10;4.43;;;15.90;99.90;;;;;;5085495;28;20123;-77
2021/06/22 09:47:58;;;;;;;12.95;4.20;;;15.80;99.90;;;;;;5107675;28;20416;-77
2021/06/22 09:50:51;;;;;;;13.07;3.97;;;15.80;99.90;;;;;;5102076;28;20039;-78
2021/06/22 09:53:31;;;;;;;16.20;5.03;;;15.60;99.90;;;;;;5119644;27;20043;-83
2021/06/22 09:56:00;;;;;;;21.52;5.18;;;15.80;99.90;;;;;;5084991;28;20505;-77
2021/06/22 09:58:43;;;;;;;12.68;4.65;;;15.80;99.90;;;;;;5104358;28;20042;-78
2021/06/22 10:01:40;;;;;;;16.85;5.35;;;15.70;99.90;;;;;;5113416;28;20411;-77
2021/06/22 10:04:13;;;;;;;14.50;4.80;;;15.70;99.90;;;;;;5105519;28;20074;-77
2021/06/22 10:06:41;;;;;;;17.13;5.10;;;15.60;99.90;;;;;;5113300;28;20039;-77
2021/06/22 10:09:09;;;;;;;15.38;4.88;;;15.60;99.90;;;;;;5109439;28;20051;-84
2021/06/22 10:11:57;;;;;;;16.58;4.18;;;15.70;99.90;;;;;;5097317;28;20027;-85
2021/06/22 10:14:29;;;;;;;15.07;5.10;;;15.60;99.90;;;;;;5104019;28;20043;-84
2021/06/22 10:17:09;;;;;;;19.25;4.90;;;15.70;99.90;;;;;;5106342;28;20027;-85
2021/06/22 10:19:57;;;;;;;16.05;4.50;;;15.70;99.90;;;;;;5101432;28;20048;-85
2021/06/22 10:22:39;;;;;;;13.82;5.22;;;15.80;99.90;;;;;;5109050;28;20035;-85
2021/06/22 10:25:16;;;;;;;15.27;4.97;;;15.80;99.90;;;;;;5092646;28;20052;-85
2021/06/22 10:27:52;;;;;;;9.57;4.68;;;15.70;99.90;;;;;;5097144;28;20035;-85
2021/06/22 10:30:31;;;;;;;13.63;4.80;;;15.90;99.90;;;;;;5096787;28;20042;-85
2021/06/22 10:33:03;;;;;;;13.50;5.00;;;15.90;99.90;;;;;;5081708;28;20040;-85
2021/06/22 10:35:36;;;;;;;13.98;5.28;;;15.90;99.90;;;;;;5069784;28;20135;-85
2021/06/22 10:38:09;;;;;;;16.38;5.18;;;15.80;99.90;;;;;;5093800;28;20063;-85
2021/06/22 10:40:55;;;;;;;17.35;4.90;;;15.80;99.90;;;;;;5082848;28;20037;-86
2021/06/22 10:43:37;;;;;;;12.63;4.78;;;15.90;99.90;;;;;;5109893;28;20044;-84
2021/06/22 10:46:15;;;;;;;20.85;5.28;;;16.00;99.90;;;;;;5109349;28;20051;-84
2021/06/22 10:48:56;;;;;;;19.02;5.55;;;16.00;99.90;;;;;;5087788;28;20483;-85
2021/06/22 10:51:30;;;;;;;18.92;5.00;;;16.00;99.90;;;;;;5088029;28;20039;-85
2021/06/22 10:53:59;;;;;;;16.40;5.68;;;16.20;99.90;;;;;;5107407;28;20036;-85
2021/06/22 10:56:29;;;;;;;14.60;5.57;;;16.30;99.90;;;;;;5109037;28;20032;-85
2021/06/22 10:59:14;;;;;;;17.75;5.65;;;16.40;99.90;;;;;;5091952;28;20127;-85
2021/06/22 11:01:52;;;;;;;11.40;5.97;;;16.60;99.90;;;;;;5109782;28;20055;-85
2021/06/22 11:04:30;;;;;;;12.88;5.32;;;16.60;99.90;;;;;;5099843;28;20059;-85
2021/06/22 11:07:20;;;;;;;12.70;5.55;;;16.70;99.90;;;;;;5114825;28;20449;-85
2021/06/22 11:10:11;;;;;;;16.02;5.72;;;16.60;99.90;;;;;;5115246;28;20028;-85
2021/06/22 11:12:56;;;;;;;15.52;5.50;;;16.60;99.90;;;;;;5115546;28;20036;-85
2021/06/22 11:15:49;;;;;;;13.27;5.33;;;16.60;99.90;;;;;;5100005;28;20035;-85
2021/06/22 11:18:22;;;;;;;12.77;5.07;;;16.80;99.90;;;;;;5108695;28;20040;-85
2021/06/22 11:21:00;;;;;;;15.10;4.88;;;16.70;99.90;;;;;;5095603;28;20109;-76
2021/06/22 11:23:28;;;;;;;14.65;4.88;;;16.70;99.90;;;;;;5099863;28;20077;-77
2021/06/22 11:26:01;;;;;;;12.20;5.15;;;17.10;99.90;;;;;;5100434;28;20040;-84
2021/06/22 11:28:48;;;;;;;12.98;5.25;;;16.80;99.90;;;;;;5102405;28;20043;-83
2021/06/22 11:31:45;;;;;;;13.93;5.55;;;16.70;99.90;;;;;;5109867;28;20047;-84
2021/06/22 11:34:14;;;;;;;10.55;4.68;;;16.70;99.90;;;;;;5112947;28;20039;-84
2021/06/22 11:37:02;;;;;;;11.90;4.93;;;16.60;99.90;;;;;;5082627;28;20467;-77
2021/06/22 11:39:31;;;;;;;10.35;5.00;;;16.60;99.90;;;;;;5097355;28;20032;-84
2021/06/22 11:42:10;;;;;;;15.07;5.22;;;16.60;99.90;;;;;;5105807;28;20036;-77
2021/06/22 11:44:41;;;;;;;17.00;5.65;;;16.70;99.90;;;;;;5112805;28;20036;-85
2021/06/22 11:47:28;;;;;;;13.18;5.50;;;16.70;99.90;;;;;;5108062;28;20036;-77
2021/06/22 11:50:15;;;;;;;12.88;6.10;;;16.70;99.90;;;;;;5112606;28;20055;-76
2021/06/22 11:52:56;;;;;;;13.40;5.70;;;16.70;99.90;;;;;;5089532;28;20040;-77
2021/06/22 11:55:27;;;;;;;17.33;5.88;;;16.70;99.90;;;;;;5099396;28;20036;-85
2021/06/22 11:57:59;;;;;;;11.57;5.68;;;16.70;99.90;;;;;;5099188;28;20066;-77
2021/06/22 12:00:34;;;;;;;13.13;5.45;;;16.70;99.90;;;;;;5106463;28;20111;-77
2021/06/22 12:03:07;;;;;;;20.33;6.97;;;16.70;99.90;;;;;;5101839;28;20055;-77
2021/06/22 12:05:35;;;;;;;15.38;6.80;;;16.70;99.90;;;;;;5098660;28;20044;-76
2021/06/22 12:08:06;;;;;;;13.18;5.55;;;16.70;99.90;;;;;;5108935;28;20035;-77
2021/06/22 12:10:51;;;;;;;14.65;5.95;;;16.70;99.90;;;;;;5107770;28;20043;-84
2021/06/22 12:13:27;;;;;;;15.50;5.63;;;16.60;99.90;;;;;;5111751;28;20475;-84
2021/06/22 12:16:05;;;;;;;10.27;5.90;;;16.70;99.90;;;;;;5112204;28;20051;-76
2021/06/22 12:18:35;;;;;;;17.25;5.63;;;16.70;99.90;;;;;;5101234;28;20051;-76
2021/06/22 12:21:09;;;;;;;14.43;5.82;;;16.90;99.90;;;;;;5105550;28;20043;-84
2021/06/22 12:23:35;;;;;;;11.25;5.20;;;17.00;99.90;;;;;;5111258;28;20471;-85
2021/06/22 12:26:03;;;;;;;16.85;5.80;;;17.00;99.90;;;;;;5094761;28;20039;-77
2021/06/22 12:28:36;;;;;;;12.20;5.93;;;17.00;99.90;;;;;;5100303;28;20161;-85
2021/06/22 12:31:03;;;;;;;11.65;5.43;;;17.10;99.90;;;;;;5112337;28;20031;-75
2021/06/22 12:33:46;;;;;;;12.25;5.25;;;17.10;99.90;;;;;;5108206;28;20032;-79
2021/06/22 12:36:21;;;;;;;12.40;5.03;;;17.00;99.10;;;;;;5097224;28;20036;-83
2021/06/22 12:38:56;;;;;;;10.77;5.68;;;16.90;98.80;;;;;;5108348;28;20046;-82
2021/06/22 12:41:29;;;;;;;11.93;6.05;;;16.90;99.10;;;;;;5104881;28;20547;-80
2021/06/22 12:43:56;;;;;;;12.65;5.40;;;17.00;99.40;;;;;;5106851;28;20044;-81
2021/06/22 12:46:24;;;;;;;14.05;5.60;;;17.00;99.40;;;;;;5083744;28;20067;-88
2021/06/22 12:52:20;;;;;;;14.50;6.00;;;16.80;99.20;;;;;;5101689;28;20491;-84
2021/06/22 12:55:01;;;;;;;;;;;;;;;;;;;;;
2021/06/22 12:58:06;;;;;;;14.60;5.22;;;16.60;99.20;;;;;;5115286;28;20113;-86
2021/06/22 13:00:40;;;;;;;12.82;5.47;;;16.60;99.20;;;;;;5090665;28;20482;-80
2021/06/22 13:03:09;;;;;;;13.02;5.43;;;16.50;99.40;;;;;;5110852;28;20036;-81
2021/06/22 13:05:36;;;;;;;14.60;6.10;;;16.50;99.50;;;;;;5114039;28;20042;-82